createdAt,value
2022-11-24T00:01:33.997Z,4.51
2022-11-24T00:04:04.150Z,4.52
2022-11-24T00:06:32.502Z,4.54
2022-11-24T00:08:59.658Z,4.55
2022-11-24T00:11:30.314Z,4.57
2022-11-24T00:13:58.077Z,4.57
2022-11-24T00:16:33.458Z,4.57
2022-11-24T00:19:02.156Z,4.56
2022-11-24T00:21:31.081Z,4.54
2022-11-24T00:23:58.389Z,4.52
2022-11-24T00:26:30.554Z,4.50
2022-11-24T00:29:01.633Z,4.46
2022-11-24T00:31:29.214Z,4.40
2022-11-24T00:33:58.919Z,4.37
2022-11-24T00:36:36.262Z,4.33
2022-11-24T00:39:20.980Z,4.30
2022-11-24T00:41:55.181Z,4.28
2022-11-24T00:44:22.070Z,4.33
2022-11-24T00:46:48.742Z,4.35
2022-11-24T00:49:15.438Z,4.35
2022-11-24T00:51:42.089Z,4.29
2022-11-24T00:54:09.229Z,4.25
2022-11-24T00:56:42.162Z,4.20
2022-11-24T00:59:08.712Z,4.18
2022-11-24T01:01:35.658Z,4.13
2022-11-24T01:04:02.422Z,4.08
2022-11-24T01:06:29.667Z,4.04
2022-11-24T01:08:57.875Z,4.04
2022-11-24T01:11:52.816Z,3.98
2022-11-24T01:14:19.704Z,3.94
2022-11-24T01:16:46.433Z,3.94
2022-11-24T01:19:14.669Z,3.95
2022-11-24T01:21:41.193Z,3.92
2022-11-24T01:24:07.850Z,3.94
2022-11-24T01:26:36.126Z,3.94
2022-11-24T01:29:02.793Z,3.92
2022-11-24T01:31:29.597Z,3.88
2022-11-24T01:33:56.266Z,3.86
2022-11-24T01:36:22.957Z,3.85
2022-11-24T01:38:49.756Z,3.81
2022-11-24T01:41:21.150Z,3.77
2022-11-24T01:43:48.323Z,3.72
2022-11-24T01:46:45.202Z,3.68
2022-11-24T01:49:13.677Z,3.63
2022-11-24T01:51:45.514Z,3.60
2022-11-24T01:54:18.776Z,3.56
2022-11-24T01:56:49.481Z,3.56
2022-11-24T01:59:18.838Z,3.54
2022-11-24T02:01:56.932Z,3.54
2022-11-24T02:04:28.608Z,3.53
2022-11-24T02:07:01.463Z,3.55
2022-11-24T02:09:36.091Z,3.55
2022-11-24T02:12:05.235Z,3.65
2022-11-24T02:14:32.252Z,3.74
2022-11-24T02:17:00.779Z,3.71
2022-11-24T02:19:43.641Z,3.70
2022-11-24T02:22:26.749Z,3.75
2022-11-24T02:24:59.741Z,3.71
2022-11-24T02:27:29.722Z,3.68
2022-11-24T02:29:56.405Z,3.65
2022-11-24T02:32:23.601Z,3.67
2022-11-24T02:34:50.144Z,3.70
2022-11-24T02:37:16.617Z,3.71
2022-11-24T02:39:50.762Z,3.75
2022-11-24T02:42:17.468Z,3.78
2022-11-24T02:44:49.362Z,3.83
2022-11-24T02:47:20.607Z,3.88
2022-11-24T02:49:47.087Z,3.87
2022-11-24T02:52:14.045Z,3.87
2022-11-24T02:54:42.259Z,3.92
2022-11-24T02:57:08.994Z,4.02
2022-11-24T02:59:39.542Z,4.06
2022-11-24T03:02:12.545Z,4.24
2022-11-24T03:04:38.988Z,4.41
2022-11-24T03:07:05.522Z,4.55
2022-11-24T03:09:37.599Z,4.57
2022-11-24T03:12:04.279Z,4.69
2022-11-24T03:14:30.981Z,4.74
2022-11-24T03:16:59.518Z,4.75
2022-11-24T03:19:26.025Z,4.75
2022-11-24T03:21:52.610Z,4.72
2022-11-24T03:24:21.410Z,4.87
2022-11-24T03:26:47.965Z,4.95
2022-11-24T03:29:14.447Z,4.97
2022-11-24T03:31:41.098Z,5.14
2022-11-24T03:34:07.702Z,5.12
2022-11-24T03:36:34.165Z,5.19
2022-11-24T03:39:00.805Z,5.19
2022-11-24T03:41:27.328Z,5.27
2022-11-24T03:43:55.837Z,5.34
2022-11-24T03:46:22.630Z,5.25
2022-11-24T03:48:49.249Z,5.22
2022-11-24T03:51:15.754Z,5.25
2022-11-24T03:53:42.344Z,5.20
2022-11-24T03:56:09.267Z,5.17
2022-11-24T03:58:35.961Z,5.20
2022-11-24T04:01:03.766Z,5.14
2022-11-24T04:03:30.333Z,5.06
2022-11-24T04:05:56.835Z,4.95
2022-11-24T04:08:25.139Z,4.87
2022-11-24T04:10:53.670Z,4.78
2022-11-24T04:13:22.509Z,4.72
2022-11-24T04:15:49.328Z,4.67
2022-11-24T04:18:15.921Z,4.64
2022-11-24T04:20:43.097Z,4.61
2022-11-24T04:23:12.313Z,4.60
2022-11-24T04:25:43.821Z,4.63
2022-11-24T04:28:10.956Z,4.68
2022-11-24T04:30:40.448Z,4.71
2022-11-24T04:33:06.924Z,4.72
2022-11-24T04:35:33.691Z,4.74
2022-11-24T04:38:05.109Z,4.74
2022-11-24T04:40:31.726Z,4.70
2022-11-24T04:42:58.184Z,4.66
2022-11-24T04:45:24.939Z,4.64
2022-11-24T04:47:51.705Z,4.57
2022-11-24T04:50:18.575Z,4.54
2022-11-24T04:52:47.449Z,4.51
2022-11-24T04:55:13.934Z,4.48
2022-11-24T04:57:40.508Z,4.48
2022-11-24T05:00:09.618Z,4.50
2022-11-24T05:02:37.030Z,4.51
2022-11-24T05:05:09.803Z,4.51
2022-11-24T05:07:38.549Z,4.47
2022-11-24T05:10:24.326Z,4.46
2022-11-24T05:12:58.330Z,4.47
2022-11-24T05:15:25.996Z,4.45
2022-11-24T05:17:54.952Z,4.48
2022-11-24T05:20:23.362Z,4.49
2022-11-24T05:22:49.962Z,4.48
2022-11-24T05:25:16.568Z,4.51
2022-11-24T05:27:45.348Z,4.53
2022-11-24T05:30:12.335Z,4.53
2022-11-24T05:32:38.836Z,4.56
2022-11-24T05:35:06.268Z,4.57
2022-11-24T05:37:32.772Z,4.57
2022-11-24T05:39:59.260Z,4.56
2022-11-24T05:42:47.236Z,4.55
2022-11-24T05:45:17.954Z,4.54
2022-11-24T05:47:53.781Z,4.56
2022-11-24T05:50:22.799Z,4.55
2022-11-24T05:52:49.836Z,4.55
2022-11-24T05:55:16.997Z,4.57
2022-11-24T05:57:43.712Z,4.58
2022-11-24T06:00:11.253Z,4.58
2022-11-24T06:02:38.089Z,4.60
2022-11-24T06:05:10.062Z,4.63
2022-11-24T06:07:43.214Z,4.65
2022-11-24T06:10:10.207Z,4.74
2022-11-24T06:12:36.722Z,4.77
2022-11-24T06:15:05.323Z,4.77
2022-11-24T06:17:31.812Z,4.79
2022-11-24T06:19:58.433Z,4.76
2022-11-24T06:22:27.220Z,4.76
2022-11-24T06:24:53.664Z,4.77
2022-11-24T06:27:20.199Z,4.77
2022-11-24T06:29:46.809Z,4.76
2022-11-24T06:32:17.195Z,4.73
2022-11-24T06:34:44.106Z,4.70
2022-11-24T06:37:12.639Z,4.68
2022-11-24T06:39:39.228Z,4.65
2022-11-24T06:42:05.722Z,4.62
2022-11-24T06:44:34.519Z,4.63
2022-11-24T06:47:01.733Z,4.63
2022-11-24T06:49:28.255Z,4.60
2022-11-24T06:51:55.393Z,4.58
2022-11-24T06:54:22.217Z,4.55
2022-11-24T06:56:49.024Z,4.53
2022-11-24T06:59:20.379Z,4.50
2022-11-24T07:01:47.151Z,4.50
2022-11-24T07:04:13.830Z,4.51
2022-11-24T07:06:48.893Z,4.54
2022-11-24T07:09:15.384Z,4.60
2022-11-24T07:11:42.365Z,4.68
2022-11-24T07:14:09.524Z,4.73
2022-11-24T07:16:36.143Z,4.76
2022-11-24T07:19:02.860Z,4.78
2022-11-24T07:21:31.028Z,4.81
2022-11-24T07:23:58.037Z,4.81
2022-11-24T07:26:25.718Z,4.82
2022-11-24T07:28:52.561Z,4.84
2022-11-24T07:31:21.517Z,4.84
2022-11-24T07:33:55.265Z,4.85
2022-11-24T07:36:23.173Z,4.88
2022-11-24T07:38:50.159Z,4.90
2022-11-24T07:41:19.595Z,4.92
2022-11-24T07:43:46.934Z,4.92
2022-11-24T07:46:18.118Z,4.94
2022-11-24T07:48:45.042Z,4.98
2022-11-24T07:51:11.617Z,5.00
2022-11-24T07:53:39.794Z,5.05
2022-11-24T07:56:06.866Z,5.08
2022-11-24T07:58:36.076Z,5.12
2022-11-24T08:01:13.840Z,5.16
2022-11-24T08:03:41.503Z,5.19
2022-11-24T08:06:28.488Z,5.23
2022-11-24T08:08:57.929Z,5.27
2022-11-24T08:11:25.384Z,5.32
2022-11-24T08:13:55.574Z,5.37
2022-11-24T08:16:24.540Z,5.42
2022-11-24T08:18:53.094Z,5.50
2022-11-24T08:21:20.076Z,5.59
2022-11-24T08:23:46.955Z,5.69
2022-11-24T08:26:17.703Z,5.77
2022-11-24T08:28:45.833Z,5.84
2022-11-24T08:31:16.167Z,5.91
2022-11-24T08:33:43.021Z,6.00
2022-11-24T08:36:14.750Z,6.12
2022-11-24T08:38:46.098Z,6.34
2022-11-24T08:41:18.396Z,6.58
2022-11-24T08:43:45.147Z,6.72
2022-11-24T08:46:14.982Z,7.87
2022-11-24T08:48:41.781Z,9.40
2022-11-24T08:51:12.170Z,10.18
2022-11-24T08:53:41.298Z,9.74
2022-11-24T08:56:08.649Z,9.57
2022-11-24T08:58:35.937Z,9.29
2022-11-24T09:01:16.401Z,9.34
2022-11-24T09:03:49.978Z,10.65
2022-11-24T09:06:31.083Z,10.83
2022-11-24T09:08:59.054Z,11.42
2022-11-24T09:11:27.217Z,11.45
2022-11-24T09:13:54.908Z,11.16
2022-11-24T09:16:27.638Z,11.68
2022-11-24T09:19:05.204Z,12.90
2022-11-24T09:21:34.453Z,12.48
2022-11-24T09:24:05.461Z,11.97
2022-11-24T09:26:34.928Z,12.69
2022-11-24T09:29:03.891Z,13.31
2022-11-24T09:31:36.202Z,12.27
2022-11-24T09:34:06.973Z,11.61
2022-11-24T09:36:33.917Z,11.29
2022-11-24T09:39:00.993Z,10.80
2022-11-24T09:41:44.483Z,10.43
2022-11-24T09:44:55.613Z,10.43
2022-11-24T09:47:48.472Z,10.68
2022-11-24T09:50:14.894Z,10.87
2022-11-24T09:53:03.716Z,10.69
2022-11-24T09:55:40.689Z,10.31
2022-11-24T09:58:26.169Z,9.88
2022-11-24T10:00:54.529Z,9.77
2022-11-24T10:03:43.856Z,9.72
2022-11-24T10:06:22.732Z,9.66
2022-11-24T10:09:21.277Z,9.57
2022-11-24T10:11:56.753Z,9.43
2022-11-24T10:14:37.549Z,9.22
2022-11-24T10:17:27.099Z,9.08
2022-11-24T10:20:04.965Z,9.09
2022-11-24T10:22:43.418Z,9.02
2022-11-24T10:25:30.551Z,8.97
2022-11-24T10:28:03.481Z,9.01
2022-11-24T10:30:30.616Z,9.02
2022-11-24T10:33:07.870Z,8.98
2022-11-24T10:35:45.493Z,9.06
2022-11-24T10:38:20.973Z,9.20
2022-11-24T10:41:03.307Z,9.26
2022-11-24T10:43:30.222Z,9.18
2022-11-24T10:46:09.364Z,9.25
2022-11-24T10:48:45.858Z,9.41
2022-11-24T10:51:38.750Z,9.54
2022-11-24T10:54:20.657Z,9.62
2022-11-24T10:56:50.289Z,9.58
2022-11-24T10:59:37.738Z,10.66
2022-11-24T11:02:31.001Z,10.37
2022-11-24T11:05:00.245Z,10.18
2022-11-24T11:07:26.918Z,10.08
2022-11-24T11:10:33.960Z,9.99
2022-11-24T11:13:31.842Z,10.28
2022-11-24T11:16:03.590Z,10.99
2022-11-24T11:18:33.206Z,12.41
2022-11-24T11:21:02.574Z,13.11
2022-11-24T11:23:35.317Z,13.11
2022-11-24T11:26:28.108Z,13.46
2022-11-24T11:34:53.570Z,12.46
2022-11-24T11:37:23.201Z,12.74
2022-11-24T11:39:52.010Z,12.70
2022-11-24T11:45:39.487Z,12.13
2022-11-24T11:48:24.144Z,12.29
2022-11-24T11:51:23.454Z,12.05
2022-11-24T11:53:56.877Z,12.29
2022-11-24T11:56:48.168Z,11.64
2022-11-24T11:59:20.707Z,11.04
2022-11-24T12:02:29.616Z,10.75
2022-11-24T12:05:24.224Z,11.85
2022-11-24T12:08:11.577Z,12.25
2022-11-24T12:10:48.382Z,12.16
2022-11-24T12:13:39.586Z,12.97
2022-11-24T12:16:31.011Z,13.23
2022-11-24T12:19:19.279Z,13.56
2022-11-24T12:22:09.099Z,13.61
2022-11-24T12:25:03.162Z,13.71
2022-11-24T12:28:00.950Z,13.65
2022-11-24T12:30:37.964Z,13.85
2022-11-24T12:33:37.764Z,13.77
2022-11-24T12:36:41.446Z,13.85
2022-11-24T12:39:46.162Z,13.80
2022-11-24T12:42:54.898Z,13.53
2022-11-24T12:45:34.844Z,13.66
2022-11-24T12:48:22.854Z,13.75
2022-11-24T12:50:52.075Z,13.73
2022-11-24T12:53:24.270Z,14.08
2022-11-24T12:56:03.503Z,14.00
2022-11-24T12:58:41.783Z,13.99
2022-11-24T13:01:25.006Z,13.88
2022-11-24T13:04:12.881Z,13.83
2022-11-24T13:07:06.130Z,13.75
2022-11-24T13:09:32.678Z,13.31
2022-11-24T13:12:15.069Z,13.10
2022-11-24T13:14:47.110Z,13.08
2022-11-24T13:17:52.377Z,12.99
2022-11-24T13:20:34.846Z,13.11
2022-11-24T13:23:04.069Z,13.40
2022-11-24T13:25:35.563Z,13.88
2022-11-24T13:28:04.190Z,14.27
2022-11-24T13:30:35.445Z,14.54
2022-11-24T13:33:05.877Z,14.70
2022-11-24T13:35:32.406Z,14.54
2022-11-24T13:38:01.190Z,14.67
2022-11-24T13:40:38.762Z,14.61
2022-11-24T13:43:07.517Z,14.54
2022-11-24T13:45:40.711Z,14.43
2022-11-24T13:48:27.978Z,14.20
2022-11-24T13:50:54.434Z,13.54
2022-11-24T13:53:50.321Z,12.91
2022-11-24T13:56:16.726Z,12.63
2022-11-24T13:58:50.589Z,12.36
2022-11-24T14:01:32.877Z,12.20
2022-11-24T14:06:51.535Z,12.07
2022-11-24T14:09:26.833Z,11.96
2022-11-24T14:12:04.299Z,11.67
2022-11-24T14:14:31.315Z,11.44
2022-11-24T14:17:14.921Z,11.27
2022-11-24T14:19:46.176Z,11.20
2022-11-24T14:22:18.794Z,11.01
2022-11-24T14:24:51.586Z,10.95
2022-11-24T14:27:23.666Z,10.75
2022-11-24T14:29:55.678Z,10.64
2022-11-24T14:32:22.503Z,10.63
2022-11-24T14:34:49.250Z,10.45
2022-11-24T14:37:15.815Z,10.33
2022-11-24T14:39:43.094Z,10.08
2022-11-24T14:42:25.822Z,9.95
2022-11-24T14:44:58.686Z,9.84
2022-11-24T14:47:37.241Z,9.74
2022-11-24T14:50:19.320Z,9.39
2022-11-24T14:52:53.248Z,9.11
2022-11-24T14:55:35.357Z,8.91
2022-11-24T14:58:03.671Z,8.74
2022-11-24T15:00:32.047Z,8.65
2022-11-24T15:03:01.764Z,8.66
2022-11-24T15:06:05.188Z,8.62
2022-11-24T15:08:45.525Z,8.50
2022-11-24T15:11:15.261Z,8.31
2022-11-24T15:13:53.745Z,8.07
2022-11-24T15:16:25.842Z,7.91
2022-11-24T15:18:59.774Z,7.76
2022-11-24T15:21:37.111Z,7.61
2022-11-24T15:24:18.504Z,7.48
2022-11-24T15:26:52.624Z,7.38
2022-11-24T15:29:19.094Z,7.28
2022-11-24T15:31:52.313Z,7.17
2022-11-24T15:34:19.479Z,7.11
2022-11-24T15:36:45.962Z,7.04
2022-11-24T15:39:12.913Z,6.98
2022-11-24T15:41:44.337Z,6.94
2022-11-24T15:44:10.857Z,6.89
2022-11-24T15:46:40.288Z,6.82
2022-11-24T15:49:07.108Z,6.76
2022-11-24T15:51:35.453Z,6.67
2022-11-24T15:54:02.189Z,6.62
2022-11-24T15:56:32.517Z,6.56
2022-11-24T15:58:59.678Z,6.49
2022-11-24T16:01:31.140Z,6.42
2022-11-24T16:04:07.149Z,6.41
2022-11-24T16:06:35.641Z,6.37
2022-11-24T16:09:02.115Z,6.31
2022-11-24T16:11:28.755Z,6.25
2022-11-24T16:13:55.293Z,6.17
2022-11-24T16:16:23.557Z,6.10
2022-11-24T16:18:54.912Z,5.98
2022-11-24T16:21:21.463Z,5.91
2022-11-24T16:23:48.760Z,5.85
2022-11-24T16:26:17.582Z,5.84
2022-11-24T16:28:49.507Z,5.80
2022-11-24T16:31:16.606Z,5.72
2022-11-24T16:33:46.611Z,5.68
2022-11-24T16:36:14.153Z,5.64
2022-11-24T16:38:40.718Z,5.63
2022-11-24T16:41:11.279Z,5.61
2022-11-24T16:43:38.282Z,5.59
2022-11-24T16:46:21.301Z,5.59
2022-11-24T16:48:50.230Z,5.54
2022-11-24T16:51:17.933Z,5.54
2022-11-24T16:53:44.496Z,5.48
2022-11-24T16:56:11.502Z,5.41
2022-11-24T16:58:39.904Z,5.36
2022-11-24T17:01:14.588Z,5.32
2022-11-24T17:03:43.259Z,5.24
2022-11-24T17:06:14.284Z,5.23
2022-11-24T17:08:41.415Z,5.21
2022-11-24T17:11:09.035Z,5.17
2022-11-24T17:13:35.584Z,5.12
2022-11-24T17:16:07.990Z,5.06
2022-11-24T17:18:35.342Z,5.02
2022-11-24T17:21:07.874Z,4.97
2022-11-24T17:23:36.181Z,4.92
2022-11-24T17:26:04.501Z,4.87
2022-11-24T17:28:31.054Z,4.80
2022-11-24T17:30:57.949Z,4.77
2022-11-24T17:33:24.428Z,4.74
2022-11-24T17:35:50.885Z,4.65
2022-11-24T17:38:17.458Z,4.60
2022-11-24T17:40:48.358Z,4.52
2022-11-24T17:43:16.827Z,4.46
2022-11-24T17:45:43.609Z,4.39
2022-11-24T17:48:10.106Z,4.25
2022-11-24T17:50:36.643Z,4.16
2022-11-24T17:53:05.376Z,4.10
2022-11-24T17:55:32.073Z,4.11
2022-11-24T17:57:58.527Z,4.10
2022-11-24T18:00:27.021Z,4.17
2022-11-24T18:02:53.549Z,4.20
2022-11-24T18:05:21.060Z,4.26
2022-11-24T18:07:49.637Z,4.25
2022-11-24T18:10:16.349Z,4.20
2022-11-24T18:12:42.849Z,4.18
2022-11-24T18:15:11.606Z,4.19
2022-11-24T18:17:39.729Z,4.20
2022-11-24T18:20:07.037Z,4.18
2022-11-24T18:23:04.019Z,4.19
2022-11-24T18:25:23.145Z,4.20
2022-11-24T18:27:54.912Z,4.23
2022-11-24T18:30:23.684Z,4.23
2022-11-24T18:32:50.149Z,4.24
2022-11-24T18:35:18.511Z,4.24
2022-11-24T18:37:45.018Z,4.25
2022-11-24T18:40:11.779Z,4.29
2022-11-24T18:42:48.040Z,4.39
2022-11-24T18:45:17.989Z,4.29
2022-11-24T18:47:44.504Z,4.30
2022-11-24T18:50:11.299Z,4.38
2022-11-24T18:52:37.779Z,4.43
2022-11-24T18:55:04.911Z,4.46
2022-11-24T18:57:33.434Z,4.47
2022-11-24T18:59:59.942Z,4.40
2022-11-24T19:02:26.556Z,4.39
2022-11-24T19:04:53.334Z,4.34
2022-11-24T19:07:20.602Z,4.35
2022-11-24T19:09:47.675Z,4.40
2022-11-24T19:12:20.347Z,4.42
2022-11-24T19:14:48.575Z,4.41
2022-11-24T19:17:15.128Z,4.30
2022-11-24T19:19:41.862Z,4.18
2022-11-24T19:22:08.978Z,4.08
2022-11-24T19:24:37.595Z,4.09
2022-11-24T19:27:04.280Z,4.05
2022-11-24T19:29:32.562Z,3.98
2022-11-24T19:31:59.191Z,3.93
2022-11-24T19:34:25.724Z,3.87
2022-11-24T19:36:58.546Z,3.78
2022-11-24T19:39:25.090Z,3.70
2022-11-24T19:41:53.040Z,3.65
2022-11-24T19:44:21.307Z,3.60
2022-11-24T19:46:47.880Z,3.57
2022-11-24T19:49:14.604Z,3.55
2022-11-24T19:51:41.361Z,3.53
2022-11-24T19:54:12.769Z,3.53
2022-11-24T19:56:39.267Z,3.53
2022-11-24T19:59:08.374Z,3.51
2022-11-24T20:01:37.543Z,3.50
2022-11-24T20:04:06.875Z,3.49
2022-11-24T20:06:38.598Z,3.48
2022-11-24T20:09:08.247Z,3.52
2022-11-24T20:11:34.823Z,3.49
2022-11-24T20:14:02.097Z,3.49
2022-11-24T20:16:30.973Z,3.57
2022-11-24T20:19:00.040Z,3.66
2022-11-24T20:21:31.502Z,3.66
2022-11-24T20:24:04.512Z,3.66
2022-11-24T20:26:33.894Z,3.65
2022-11-24T20:29:00.835Z,3.67
2022-11-24T20:31:41.983Z,3.73
2022-11-24T20:34:09.811Z,3.75
2022-11-24T20:36:39.813Z,3.81
2022-11-24T20:39:11.448Z,3.90
2022-11-24T20:41:39.654Z,3.88
2022-11-24T20:44:10.757Z,3.89
2022-11-24T20:46:39.435Z,3.85
2022-11-24T20:49:07.507Z,3.87
2022-11-24T20:51:37.345Z,3.93
2022-11-24T20:54:08.612Z,4.02
2022-11-24T20:56:39.832Z,4.05
2022-11-24T20:59:06.998Z,4.06
2022-11-24T21:01:40.119Z,4.15
2022-11-24T21:04:09.848Z,4.20
2022-11-24T21:06:37.262Z,4.19
2022-11-24T21:09:10.964Z,4.20
2022-11-24T21:11:38.197Z,4.25
2022-11-24T21:14:05.244Z,4.39
2022-11-24T21:16:34.440Z,4.47
2022-11-24T21:19:03.776Z,4.53
2022-11-24T21:21:36.272Z,4.63
2022-11-24T21:24:04.614Z,4.68
2022-11-24T21:26:31.302Z,4.73
2022-11-24T21:28:59.579Z,4.80
2022-11-24T21:31:26.123Z,4.90
2022-11-24T21:33:54.001Z,4.99
2022-11-24T21:36:23.349Z,5.06
2022-11-24T21:38:52.023Z,5.12
2022-11-24T21:41:18.899Z,5.23
2022-11-24T21:43:45.544Z,5.24
2022-11-24T21:46:14.576Z,5.26
2022-11-24T21:48:42.320Z,5.31
2022-11-24T21:51:18.207Z,5.30
2022-11-24T21:53:45.732Z,5.40
2022-11-24T21:56:25.130Z,5.42
2022-11-24T21:58:56.401Z,5.46
2022-11-24T22:01:28.201Z,5.48
2022-11-24T22:03:55.539Z,5.44
2022-11-24T22:06:22.636Z,5.43
2022-11-24T22:08:51.517Z,5.38
2022-11-24T22:11:21.957Z,5.33
2022-11-24T22:13:49.541Z,5.30
2022-11-24T22:16:19.117Z,5.25
2022-11-24T22:18:46.328Z,5.18
2022-11-24T22:21:18.769Z,5.14
2022-11-24T22:23:52.468Z,5.10
2022-11-24T22:26:21.297Z,5.09
2022-11-24T22:28:47.925Z,5.08
2022-11-24T22:31:21.811Z,5.06
2022-11-24T22:33:49.158Z,5.04
2022-11-24T22:36:17.706Z,5.03
2022-11-24T22:38:50.898Z,5.01
2022-11-24T22:41:18.336Z,4.98
2022-11-24T22:43:46.338Z,4.95
2022-11-24T22:46:18.747Z,4.93
2022-11-24T22:48:46.864Z,4.91
2022-11-24T22:51:18.613Z,4.84
2022-11-24T22:53:56.359Z,4.82
2022-11-24T22:56:25.520Z,4.78
2022-11-24T22:58:52.301Z,4.72
2022-11-24T23:01:21.445Z,4.66
2022-11-24T23:03:49.048Z,4.67
2022-11-24T23:06:21.497Z,4.64
2022-11-24T23:08:51.418Z,4.59
2022-11-24T23:11:36.424Z,4.55
2022-11-24T23:14:07.210Z,4.55
2022-11-24T23:16:34.072Z,4.57
2022-11-24T23:19:00.632Z,4.59
2022-11-24T23:21:31.233Z,4.60
2022-11-24T23:24:03.037Z,4.60
2022-11-24T23:26:35.456Z,4.63
2022-11-24T23:29:02.755Z,4.63
2022-11-24T23:31:29.690Z,4.63
2022-11-24T23:34:00.529Z,4.62
2022-11-24T23:36:28.198Z,4.66
2022-11-24T23:38:54.956Z,4.66
2022-11-24T23:41:24.208Z,4.65
2022-11-24T23:43:52.340Z,4.72
2022-11-24T23:46:21.666Z,4.75
2022-11-24T23:48:53.252Z,4.80
2022-11-24T23:51:25.612Z,4.82
2022-11-24T23:53:58.281Z,4.85
2022-11-24T23:56:28.947Z,4.85
2022-11-24T23:58:55.490Z,4.80
